createdAt,value
2019-03-20T00:01:17.191Z,69.93
2019-03-20T00:03:46.403Z,70.14
2019-03-20T00:06:15.916Z,70.15
2019-03-20T00:08:45.393Z,70.12
2019-03-20T00:11:14.532Z,70.05
2019-03-20T00:13:44.046Z,70.12
2019-03-20T00:16:13.576Z,70.20
2019-03-20T00:18:43.154Z,70.51
2019-03-20T00:21:12.345Z,70.44
2019-03-20T00:23:41.510Z,70.57
2019-03-20T00:26:11.282Z,70.70
2019-03-20T00:28:40.419Z,70.83
2019-03-20T00:31:09.579Z,70.99
2019-03-20T00:33:39.103Z,70.80
2019-03-20T00:36:08.681Z,70.67
2019-03-20T00:38:37.920Z,70.99
2019-03-20T00:41:07.084Z,70.96
2019-03-20T00:43:38.358Z,71.08
2019-03-20T00:46:07.510Z,71.33
2019-03-20T00:48:37.020Z,71.54
2019-03-20T00:51:06.183Z,71.60
2019-03-20T00:53:35.741Z,71.58
2019-03-20T00:56:05.288Z,71.76
2019-03-20T00:58:34.446Z,71.72
2019-03-20T01:01:03.646Z,71.82
2019-03-20T01:03:33.158Z,71.90
2019-03-20T01:06:04.369Z,71.99
2019-03-20T01:08:33.957Z,72.06
2019-03-20T01:11:03.545Z,72.20
2019-03-20T01:13:32.764Z,72.28
2019-03-20T01:16:02.295Z,72.16
2019-03-20T01:18:31.905Z,72.20
2019-03-20T01:21:01.415Z,72.35
2019-03-20T01:23:30.616Z,72.43
2019-03-20T01:25:59.823Z,72.50
2019-03-20T01:28:29.336Z,72.44
2019-03-20T01:30:58.973Z,72.51
2019-03-20T01:33:28.311Z,72.63
2019-03-20T01:35:58.181Z,72.86
2019-03-20T01:38:28.408Z,73.10
2019-03-20T01:40:58.187Z,73.33
2019-03-20T01:43:28.045Z,73.53
2019-03-20T01:45:57.211Z,73.62
2019-03-20T01:48:26.382Z,73.49
2019-03-20T01:50:55.576Z,73.37
2019-03-20T01:53:26.288Z,73.37
2019-03-20T01:55:55.409Z,73.33
2019-03-20T01:58:24.627Z,73.22
2019-03-20T02:00:54.145Z,73.68
2019-03-20T02:03:23.334Z,73.77
2019-03-20T02:05:52.494Z,73.85
2019-03-20T02:08:23.594Z,73.87
2019-03-20T02:10:53.260Z,73.85
2019-03-20T02:13:22.439Z,73.74
2019-03-20T02:15:51.646Z,73.64
2019-03-20T02:18:21.636Z,73.85
2019-03-20T02:20:51.308Z,74.04
2019-03-20T02:23:20.856Z,74.08
2019-03-20T02:25:50.066Z,74.18
2019-03-20T02:28:19.199Z,74.30
2019-03-20T02:30:48.421Z,74.14
2019-03-20T02:33:17.607Z,74.06
2019-03-20T02:35:51.811Z,74.01
2019-03-20T02:38:18.483Z,74.07
2019-03-20T02:40:48.019Z,74.21
2019-03-20T02:43:17.218Z,74.21
2019-03-20T02:45:46.667Z,74.30
2019-03-20T02:48:15.867Z,74.47
2019-03-20T02:50:44.994Z,74.57
2019-03-20T02:53:14.629Z,74.57
2019-03-20T02:55:43.790Z,74.66
2019-03-20T02:58:13.055Z,74.91
2019-03-20T03:00:42.577Z,75.24
2019-03-20T03:03:12.516Z,75.12
2019-03-20T03:05:41.698Z,75.00
2019-03-20T03:08:11.215Z,74.40
2019-03-20T03:10:40.746Z,73.87
2019-03-20T03:13:10.097Z,73.46
2019-03-20T03:15:39.242Z,73.06
2019-03-20T03:18:08.720Z,72.90
2019-03-20T03:20:39.717Z,72.73
2019-03-20T03:23:08.959Z,72.58
2019-03-20T03:25:38.301Z,72.61
2019-03-20T03:28:07.448Z,72.79
2019-03-20T03:30:36.882Z,73.03
2019-03-20T03:33:06.104Z,73.37
2019-03-20T03:35:35.275Z,73.82
2019-03-20T03:38:05.193Z,74.13
2019-03-20T03:40:34.380Z,73.99
2019-03-20T03:43:03.560Z,73.94
2019-03-20T03:45:32.802Z,74.43
2019-03-20T03:48:02.012Z,74.83
2019-03-20T03:50:31.357Z,74.59
2019-03-20T03:53:00.510Z,74.59
2019-03-20T03:55:30.003Z,74.80
2019-03-20T03:57:59.204Z,74.93
2019-03-20T04:00:28.731Z,74.79
2019-03-20T04:02:58.063Z,74.87
2019-03-20T04:05:27.519Z,74.89
2019-03-20T04:07:56.657Z,74.97
2019-03-20T04:10:26.625Z,74.93
2019-03-20T04:12:55.791Z,75.20
2019-03-20T04:15:25.237Z,75.24
2019-03-20T04:17:54.443Z,75.23
2019-03-20T04:20:23.967Z,75.51
2019-03-20T04:22:53.099Z,75.45
2019-03-20T04:25:24.183Z,75.48
2019-03-20T04:27:53.348Z,75.60
2019-03-20T04:30:22.560Z,75.76
2019-03-20T04:32:51.822Z,75.89
2019-03-20T04:35:20.965Z,75.97
2019-03-20T04:37:50.463Z,75.89
2019-03-20T04:40:19.717Z,75.67
2019-03-20T04:42:48.967Z,75.26
2019-03-20T04:45:18.213Z,74.87
2019-03-20T04:47:47.685Z,74.58
2019-03-20T04:50:17.149Z,74.57
2019-03-20T04:52:46.291Z,74.64
2019-03-20T04:55:17.434Z,74.57
2019-03-20T04:57:46.648Z,73.97
2019-03-20T05:00:16.138Z,73.59
2019-03-20T05:02:45.979Z,72.93
2019-03-20T05:05:15.565Z,72.50
2019-03-20T05:07:44.714Z,72.16
2019-03-20T05:10:14.467Z,72.01
2019-03-20T05:12:43.810Z,71.88
2019-03-20T05:15:13.464Z,71.73
2019-03-20T05:17:43.062Z,71.61
2019-03-20T05:20:12.986Z,71.32
2019-03-20T05:22:42.094Z,71.32
2019-03-20T05:25:11.317Z,71.29
2019-03-20T05:27:40.498Z,71.38
2019-03-20T05:30:13.704Z,71.27
2019-03-20T05:32:42.900Z,71.08
2019-03-20T05:35:12.225Z,70.94
2019-03-20T05:37:43.252Z,70.92
2019-03-20T05:40:13.190Z,70.65
2019-03-20T05:42:42.970Z,70.61
2019-03-20T05:45:13.232Z,70.79
2019-03-20T05:47:44.234Z,70.86
2019-03-20T05:50:14.167Z,70.88
2019-03-20T05:52:43.335Z,70.56
2019-03-20T05:55:12.709Z,70.65
2019-03-20T05:57:41.904Z,70.61
2019-03-20T06:00:13.267Z,70.69
2019-03-20T06:02:43.106Z,70.50
2019-03-20T06:05:12.880Z,70.23
2019-03-20T06:07:42.025Z,70.33
2019-03-20T06:10:12.319Z,70.26
2019-03-20T06:12:41.543Z,69.90
2019-03-20T06:15:11.042Z,69.71
2019-03-20T06:17:40.556Z,69.46
2019-03-20T06:20:09.959Z,69.52
2019-03-20T06:22:39.140Z,69.18
2019-03-20T06:25:09.022Z,68.99
2019-03-20T06:27:38.219Z,68.93
2019-03-20T06:30:10.630Z,68.93
2019-03-20T06:32:40.184Z,68.86
2019-03-20T06:35:09.398Z,68.70
2019-03-20T06:37:38.634Z,68.36
2019-03-20T06:40:10.703Z,67.99
2019-03-20T06:42:39.810Z,68.02
2019-03-20T06:45:10.295Z,67.67
2019-03-20T06:47:40.493Z,67.82
2019-03-20T06:50:12.142Z,67.56
2019-03-20T06:52:41.311Z,67.37
2019-03-20T06:55:10.854Z,67.13
2019-03-20T06:57:41.143Z,66.75
2019-03-20T07:00:54.594Z,66.55
2019-03-20T07:04:17.448Z,66.32
2019-03-20T07:07:11.369Z,66.12
2019-03-20T07:09:45.486Z,66.18
2019-03-20T07:12:14.675Z,66.46
2019-03-20T07:14:43.897Z,66.22
2019-03-20T07:17:14.672Z,65.96
2019-03-20T07:19:44.497Z,66.19
2019-03-20T07:22:14.032Z,66.16
2019-03-20T07:24:43.838Z,65.86
2019-03-20T07:27:13.153Z,65.74
2019-03-20T07:29:42.347Z,65.74
2019-03-20T07:32:11.485Z,65.65
2019-03-20T07:34:40.667Z,65.62
2019-03-20T07:37:10.537Z,65.76
2019-03-20T07:39:40.074Z,65.54
2019-03-20T07:42:09.661Z,65.24
2019-03-20T07:44:39.091Z,65.11
2019-03-20T07:47:08.302Z,65.08
2019-03-20T07:49:37.876Z,65.00
2019-03-20T07:52:07.112Z,64.82
2019-03-20T07:54:36.637Z,64.97
2019-03-20T07:57:05.787Z,64.87
2019-03-20T07:59:35.043Z,65.20
2019-03-20T08:02:04.570Z,66.09
2019-03-20T08:04:33.759Z,66.09
2019-03-20T08:07:03.411Z,65.58
2019-03-20T08:09:32.703Z,65.27
2019-03-20T08:12:01.897Z,65.00
2019-03-20T08:14:31.807Z,65.04
2019-03-20T08:17:01.016Z,64.98
2019-03-20T08:19:30.176Z,64.51
2019-03-20T08:21:59.400Z,65.04
2019-03-20T08:24:28.597Z,65.56
2019-03-20T08:26:57.809Z,65.39
2019-03-20T08:29:27.293Z,65.62
2019-03-20T08:31:56.468Z,65.88
2019-03-20T08:34:25.865Z,65.91
2019-03-20T08:36:55.059Z,66.41
2019-03-20T08:39:24.629Z,66.62
2019-03-20T08:41:53.858Z,66.67
2019-03-20T08:44:23.005Z,66.41
2019-03-20T08:46:52.221Z,65.71
2019-03-20T08:49:21.361Z,65.62
2019-03-20T08:51:50.547Z,65.49
2019-03-20T08:54:19.796Z,64.94
2019-03-20T08:56:49.289Z,64.68
2019-03-20T08:59:18.921Z,64.36
2019-03-20T09:01:48.095Z,64.47
2019-03-20T09:04:17.572Z,64.00
2019-03-20T09:06:46.773Z,63.95
2019-03-20T09:09:15.931Z,63.83
2019-03-20T09:11:45.825Z,63.47
2019-03-20T09:14:15.353Z,63.65
2019-03-20T09:16:44.882Z,64.29
2019-03-20T09:19:15.113Z,64.18
2019-03-20T09:21:44.301Z,63.72
2019-03-20T09:24:13.462Z,63.04
2019-03-20T09:26:42.705Z,63.25
2019-03-20T09:29:18.521Z,63.57
2019-03-20T09:31:43.311Z,63.74
2019-03-20T09:34:12.503Z,63.62
2019-03-20T09:36:43.397Z,64.28
2019-03-20T09:39:12.827Z,63.73
2019-03-20T09:41:42.044Z,63.61
2019-03-20T09:44:11.582Z,63.98
2019-03-20T09:46:40.976Z,64.24
2019-03-20T09:49:10.431Z,64.01
2019-03-20T09:51:39.620Z,62.72
2019-03-20T09:54:09.274Z,61.88
2019-03-20T09:56:38.457Z,61.54
2019-03-20T09:59:07.698Z,62.34
2019-03-20T10:01:36.925Z,62.54
2019-03-20T10:04:06.284Z,62.91
2019-03-20T10:06:35.807Z,62.89
2019-03-20T10:09:07.872Z,62.03
2019-03-20T10:11:37.594Z,61.34
2019-03-20T10:14:06.792Z,61.17
2019-03-20T10:16:35.954Z,60.70
2019-03-20T10:19:06.029Z,60.56
2019-03-20T10:21:35.614Z,61.68
2019-03-20T10:24:04.853Z,61.60
2019-03-20T10:26:34.489Z,61.22
2019-03-20T10:29:03.860Z,60.89
2019-03-20T10:31:33.522Z,61.29
2019-03-20T10:34:02.679Z,61.38
2019-03-20T10:36:31.877Z,61.30
2019-03-20T10:39:06.279Z,62.55
2019-03-20T10:41:33.842Z,63.88
2019-03-20T10:44:03.034Z,63.97
2019-03-20T10:46:32.246Z,64.14
2019-03-20T10:49:01.430Z,65.37
2019-03-20T10:51:30.982Z,65.02
2019-03-20T10:54:01.293Z,64.66
2019-03-20T10:56:30.617Z,66.00
2019-03-20T10:58:59.827Z,65.45
2019-03-20T11:01:29.029Z,65.79
2019-03-20T11:03:58.584Z,66.05
2019-03-20T11:06:27.725Z,65.74
2019-03-20T11:08:56.958Z,65.69
2019-03-20T11:11:27.389Z,65.89
2019-03-20T11:13:57.184Z,66.35
2019-03-20T11:16:26.642Z,66.28
2019-03-20T11:18:57.446Z,66.08
2019-03-20T11:21:26.852Z,66.30
2019-03-20T11:23:56.046Z,66.86
2019-03-20T11:26:25.830Z,66.22
2019-03-20T11:28:55.008Z,66.34
2019-03-20T11:31:24.523Z,66.40
2019-03-20T11:33:55.782Z,65.79
2019-03-20T11:36:25.047Z,65.55
2019-03-20T11:38:54.729Z,64.62
2019-03-20T11:41:23.901Z,64.06
2019-03-20T11:43:53.097Z,63.46
2019-03-20T11:46:24.577Z,64.22
2019-03-20T11:48:53.810Z,63.97
2019-03-20T11:51:23.036Z,63.35
2019-03-20T11:53:52.912Z,63.80
2019-03-20T11:56:22.453Z,63.39
2019-03-20T11:58:51.889Z,62.89
2019-03-20T12:01:21.077Z,62.80
2019-03-20T12:03:50.225Z,62.93
2019-03-20T12:06:19.381Z,62.66
2019-03-20T12:08:48.605Z,62.87
2019-03-20T12:11:18.249Z,63.23
2019-03-20T12:13:48.178Z,64.47
2019-03-20T12:16:17.336Z,65.74
2019-03-20T12:18:46.541Z,65.68
2019-03-20T12:21:16.066Z,65.46
2019-03-20T12:23:45.220Z,65.04
2019-03-20T12:26:14.891Z,64.49
2019-03-20T12:28:44.063Z,64.92
2019-03-20T12:31:13.291Z,64.68
2019-03-20T12:33:42.513Z,64.87
2019-03-20T12:36:12.401Z,64.26
2019-03-20T12:38:41.619Z,64.89
2019-03-20T12:41:10.912Z,64.36
2019-03-20T12:43:40.087Z,65.22
2019-03-20T12:46:09.613Z,65.94
2019-03-20T12:48:38.828Z,66.53
2019-03-20T12:51:07.981Z,66.55
2019-03-20T12:53:37.151Z,66.58
2019-03-20T12:56:06.761Z,66.97
2019-03-20T12:58:35.921Z,66.80
2019-03-20T13:01:05.318Z,66.92
2019-03-20T13:03:34.982Z,66.48
2019-03-20T13:06:04.203Z,66.55
2019-03-20T13:08:33.372Z,67.25
2019-03-20T13:11:02.961Z,67.50
2019-03-20T13:13:32.550Z,67.31
2019-03-20T13:16:02.174Z,67.05
2019-03-20T13:18:31.390Z,66.78
2019-03-20T13:21:00.819Z,67.09
2019-03-20T13:23:32.275Z,67.19
2019-03-20T13:26:03.367Z,67.26
2019-03-20T13:28:32.508Z,67.20
2019-03-20T13:31:05.089Z,67.13
2019-03-20T13:33:34.611Z,67.51
2019-03-20T13:36:03.808Z,67.62
2019-03-20T13:38:33.114Z,67.65
2019-03-20T13:41:02.328Z,67.92
2019-03-20T13:43:31.647Z,68.29
2019-03-20T13:46:00.846Z,68.34
2019-03-20T13:48:30.048Z,68.44
2019-03-20T13:50:59.547Z,68.14
2019-03-20T13:53:29.029Z,67.96
2019-03-20T13:55:58.239Z,67.82
2019-03-20T13:58:27.466Z,67.54
2019-03-20T14:00:57.468Z,67.59
2019-03-20T14:03:26.609Z,67.88
2019-03-20T14:05:55.778Z,67.71
2019-03-20T14:08:24.976Z,67.47
2019-03-20T14:10:54.176Z,67.76
2019-03-20T14:13:23.494Z,67.22
2019-03-20T14:15:52.636Z,67.56
2019-03-20T14:18:21.820Z,67.52
2019-03-20T14:20:51.295Z,67.66
2019-03-20T14:23:20.483Z,67.76
2019-03-20T14:25:49.699Z,68.14
2019-03-20T14:28:19.261Z,68.34
2019-03-20T14:30:49.327Z,67.60
2019-03-20T14:33:18.787Z,68.08
2019-03-20T14:35:48.050Z,67.70
2019-03-20T14:38:17.240Z,67.95
2019-03-20T14:40:46.457Z,68.31
2019-03-20T14:43:15.677Z,68.52
2019-03-20T14:45:44.875Z,68.35
2019-03-20T14:48:14.146Z,68.08
2019-03-20T14:50:44.543Z,68.03
2019-03-20T14:53:14.018Z,68.74
2019-03-20T14:55:43.560Z,68.67
2019-03-20T14:58:12.711Z,68.34
2019-03-20T15:00:42.238Z,67.96
2019-03-20T15:03:11.851Z,67.48
2019-03-20T15:05:41.077Z,66.87
2019-03-20T15:08:10.213Z,66.30
2019-03-20T15:10:46.000Z,65.77
2019-03-20T15:13:10.684Z,65.33
2019-03-20T15:15:46.332Z,65.47
2019-03-20T15:18:15.843Z,65.21
2019-03-20T15:20:45.011Z,65.07
2019-03-20T15:23:14.344Z,65.25
2019-03-20T15:25:43.989Z,65.77
2019-03-20T15:28:13.194Z,66.07
2019-03-20T15:30:42.376Z,66.44
2019-03-20T15:33:11.859Z,67.03
2019-03-20T15:35:41.147Z,67.09
2019-03-20T15:38:10.565Z,67.31
2019-03-20T15:40:40.136Z,67.31
2019-03-20T15:43:09.552Z,67.30
2019-03-20T15:45:38.743Z,66.84
2019-03-20T15:48:08.254Z,66.87
2019-03-20T15:50:37.398Z,67.16
2019-03-20T15:53:06.890Z,67.47
2019-03-20T15:55:36.390Z,67.26
2019-03-20T15:58:05.906Z,67.24
2019-03-20T16:00:35.058Z,67.06
2019-03-20T16:03:07.326Z,66.71
2019-03-20T16:05:36.736Z,66.56
2019-03-20T16:08:06.209Z,66.69
2019-03-20T16:10:35.687Z,67.28
2019-03-20T16:13:05.393Z,67.29
2019-03-20T16:15:36.348Z,67.29
2019-03-20T16:18:06.970Z,67.45
2019-03-20T16:20:36.380Z,67.83
2019-03-20T16:23:06.139Z,68.16
2019-03-20T16:25:35.491Z,68.29
2019-03-20T16:28:04.812Z,68.54
2019-03-20T16:30:33.982Z,68.54
2019-03-20T16:33:03.485Z,68.52
2019-03-20T16:35:33.138Z,68.71
2019-03-20T16:38:02.336Z,68.62
2019-03-20T16:40:31.552Z,68.73
2019-03-20T16:43:01.070Z,68.59
2019-03-20T16:45:31.081Z,68.76
2019-03-20T16:48:00.565Z,69.01
2019-03-20T16:50:29.774Z,69.00
2019-03-20T16:52:59.292Z,69.29
2019-03-20T16:55:28.457Z,69.15
2019-03-20T16:57:58.051Z,69.20
2019-03-20T17:00:28.175Z,69.03
2019-03-20T17:02:57.755Z,69.15
2019-03-20T17:05:27.508Z,69.25
2019-03-20T17:07:58.411Z,69.36
2019-03-20T17:10:32.940Z,69.51
2019-03-20T17:13:02.274Z,69.43
2019-03-20T17:15:31.717Z,69.51
2019-03-20T17:18:01.181Z,69.21
2019-03-20T17:20:31.109Z,69.40
2019-03-20T17:23:00.297Z,69.51
2019-03-20T17:25:30.088Z,69.65
2019-03-20T17:27:59.273Z,69.47
2019-03-20T17:30:30.665Z,69.67
2019-03-20T17:33:00.213Z,69.75
2019-03-20T17:35:29.516Z,69.79
2019-03-20T17:38:01.630Z,69.71
2019-03-20T17:40:31.362Z,69.76
2019-03-20T17:43:00.885Z,69.80
2019-03-20T17:45:31.205Z,69.58
2019-03-20T17:48:00.945Z,69.67
2019-03-20T17:50:30.251Z,70.11
2019-03-20T17:52:59.639Z,70.38
2019-03-20T17:55:28.886Z,70.44
2019-03-20T17:57:58.602Z,70.44
2019-03-20T18:00:48.168Z,70.45
2019-03-20T18:03:17.431Z,70.61
2019-03-20T18:05:46.975Z,70.49
2019-03-20T18:08:16.251Z,70.44
2019-03-20T18:10:45.457Z,70.31
2019-03-20T18:13:16.100Z,70.22
2019-03-20T18:15:45.684Z,70.12
2019-03-20T18:18:15.540Z,70.17
2019-03-20T18:20:44.678Z,70.33
2019-03-20T18:23:14.491Z,70.29
2019-03-20T18:25:43.797Z,70.35
2019-03-20T18:28:13.056Z,70.33
2019-03-20T18:30:43.386Z,70.52
2019-03-20T18:33:13.332Z,70.37
2019-03-20T18:35:42.531Z,70.58
2019-03-20T18:38:11.985Z,70.72
2019-03-20T18:40:41.405Z,70.69
2019-03-20T18:43:10.766Z,70.69
2019-03-20T18:45:39.972Z,70.74
2019-03-20T18:48:09.488Z,70.72
2019-03-20T18:50:38.655Z,70.73
2019-03-20T18:53:08.514Z,71.17
2019-03-20T18:55:37.655Z,70.95
2019-03-20T18:58:07.849Z,71.25
2019-03-20T19:00:37.341Z,71.20
2019-03-20T19:03:10.746Z,70.99
2019-03-20T19:05:52.935Z,70.97
2019-03-20T19:08:22.205Z,70.94
2019-03-20T19:10:51.428Z,70.86
2019-03-20T19:13:21.029Z,70.91
2019-03-20T19:15:50.671Z,70.88
2019-03-20T19:18:20.406Z,70.89
2019-03-20T19:20:49.667Z,70.80
2019-03-20T19:23:20.419Z,70.68
2019-03-20T19:25:49.828Z,70.90
2019-03-20T19:28:19.006Z,70.84
2019-03-20T19:30:48.161Z,70.85
2019-03-20T19:33:18.113Z,70.97
2019-03-20T19:35:47.345Z,70.84
2019-03-20T19:38:17.332Z,70.89
2019-03-20T19:40:46.623Z,70.90
2019-03-20T19:43:15.774Z,70.95
2019-03-20T19:45:45.245Z,70.93
2019-03-20T19:48:14.436Z,70.88
2019-03-20T19:50:44.788Z,71.00
2019-03-20T19:53:13.941Z,70.98
2019-03-20T19:55:43.154Z,70.95
2019-03-20T19:58:12.416Z,71.28
2019-03-20T20:00:41.559Z,71.22
2019-03-20T20:03:10.757Z,71.09
2019-03-20T20:05:39.945Z,70.84
2019-03-20T20:08:09.490Z,70.92
2019-03-20T20:10:38.642Z,70.99
2019-03-20T20:13:07.851Z,71.10
2019-03-20T20:15:37.061Z,71.22
2019-03-20T20:18:06.812Z,71.41
2019-03-20T20:20:36.630Z,71.50
2019-03-20T20:23:05.991Z,71.33
2019-03-20T20:25:35.608Z,71.20
2019-03-20T20:28:04.871Z,71.25
2019-03-20T20:30:34.118Z,70.95
2019-03-20T20:33:03.283Z,71.17
2019-03-20T20:35:32.440Z,71.48
2019-03-20T20:38:01.951Z,71.48
2019-03-20T20:40:31.535Z,71.62
2019-03-20T20:43:00.796Z,72.01
2019-03-20T20:45:30.337Z,72.00
2019-03-20T20:47:59.931Z,72.20
2019-03-20T20:50:29.442Z,72.37
2019-03-20T20:52:59.046Z,72.49
2019-03-20T20:55:29.603Z,72.49
2019-03-20T20:57:59.287Z,72.44
2019-03-20T21:00:28.838Z,72.56
2019-03-20T21:02:58.409Z,72.42
2019-03-20T21:05:27.682Z,72.34
2019-03-20T21:07:57.290Z,72.39
2019-03-20T21:10:26.511Z,72.47
2019-03-20T21:12:57.345Z,72.53
2019-03-20T21:15:41.126Z,72.62
2019-03-20T21:18:57.692Z,72.61
2019-03-20T21:22:20.265Z,72.52
2019-03-20T21:24:50.268Z,72.33
2019-03-20T21:28:03.928Z,72.25
2019-03-20T21:31:12.871Z,72.67
2019-03-20T21:34:29.338Z,72.56
2019-03-20T21:37:34.707Z,72.89
2019-03-20T21:40:05.398Z,72.90
2019-03-20T21:43:10.608Z,72.92
2019-03-20T21:46:24.405Z,73.01
2019-03-20T21:48:54.166Z,72.88
2019-03-20T21:51:24.228Z,72.90
2019-03-20T21:54:38.440Z,73.01
2019-03-20T21:57:54.826Z,73.16
2019-03-20T22:01:26.636Z,73.28
2019-03-20T22:03:56.379Z,73.35
2019-03-20T22:07:13.136Z,73.22
2019-03-20T22:10:32.315Z,73.39
2019-03-20T22:13:47.404Z,73.34
2019-03-20T22:17:28.107Z,73.48
2019-03-20T22:20:25.078Z,73.55
2019-03-20T22:23:18.871Z,73.61
2019-03-20T22:26:35.367Z,73.71
2019-03-20T22:29:22.077Z,73.60
2019-03-20T22:32:40.736Z,73.54
2019-03-20T22:35:52.705Z,73.56
2019-03-20T22:39:06.075Z,73.51
2019-03-20T22:42:20.054Z,73.42
2019-03-20T22:45:02.597Z,73.50
2019-03-20T22:48:31.639Z,73.64
2019-03-20T22:51:30.989Z,73.64
2019-03-20T22:54:36.242Z,72.73
2019-03-20T22:57:40.217Z,72.33
2019-03-20T23:00:09.983Z,72.32
2019-03-20T23:02:46.166Z,72.31
2019-03-20T23:05:16.218Z,72.17
2019-03-20T23:07:45.943Z,72.12
2019-03-20T23:10:16.465Z,72.27
2019-03-20T23:12:46.211Z,72.56
2019-03-20T23:15:17.377Z,72.45
2019-03-20T23:17:47.415Z,72.47
2019-03-20T23:20:20.091Z,71.89
2019-03-20T23:22:49.958Z,72.20
2019-03-20T23:25:19.677Z,72.27
2019-03-20T23:27:49.811Z,71.91
2019-03-20T23:30:22.227Z,71.97
2019-03-20T23:32:52.115Z,72.22
2019-03-20T23:35:21.820Z,72.46
2019-03-20T23:37:51.538Z,73.02
2019-03-20T23:40:21.268Z,73.44
2019-03-20T23:42:51.593Z,74.32
2019-03-20T23:45:21.327Z,74.71
2019-03-20T23:48:31.580Z,74.66
2019-03-20T23:51:05.161Z,75.38
2019-03-20T23:53:35.414Z,75.65
2019-03-20T23:56:05.653Z,76.29
2019-03-20T23:58:35.352Z,76.69
